Sheppard AFB, Texas
Current Conditions -  °F | °C
As of 1:52 AM on Friday 19 Dec 2014 (Local Time) from KSPS Reporting Station
Haze Haze  
Wind Chill: 38°   Ceiling: 500
Heat Index: 43°   Visibility: 6mi
Dew Point: 41°   Wind: 8mph
Humidity: 93%   Direction: 20°NNE
Pressure: 30.17"   Gusts: NA
Location:  33.94°N, 98.5°W
Report Text: KSPS 190752Z AUTO 02007KT 6SM BR BKN005 OVC009 06/05 A3017 RMK AO2 CIG 003V007 SLP216 T00610050 TSNO $
Loading
Personal Weather Stations






























Interactive Weather Map New forecast layout! Learn more

10-Day Weather Forecast

Advertisements
Track Severe Weather on mobile